Weather at University of Minnesota Hospitals & Clinics Heliport

Public forecast

Using degrees Fahrenheit for public forecast. Weather courtesy of forecast.io.

Closest aviation weather report (METAR) to University of Minnesota Hospitals & Clinics Heliport

Closest report is Minneapolis–Saint Paul International Airport / Wold–Chamberlain Field, 5.4 nm (9.9 km) S. Retrieved 2021/07/24 23:53 UTC (21 minutes ago):

KMSP 242353Z 32013KT 8SM CLR 32/07 A2990 RMK AO2 SLP120 T03170072 10339 20306 50002

Closest aviation forecast (TAF) to University of Minnesota Hospitals & Clinics Heliport

Closest forecast is Minneapolis–Saint Paul International Airport / Wold–Chamberlain Field, 5.4 nm (9.9 km) S. Retrieved 2021-07-25 00:22 UTC (0 seconds ago):

TAF KMSP 242320Z 2500/2606 31012G20KT P6SM FEW250 FM250100 32009KT P6SM FEW250 FM250500 28004KT 6SM HZ FEW250 FM251600 28009KT P6SM FEW250